sensor_id;sensor_type;location;lat;lon;timestamp;temperature;humidity
7496;DHT22;3789;47.064;15.482;2022-07-29T00:00:09;20.60;99.90
7496;DHT22;3789;47.064;15.482;2022-07-29T00:02:47;20.70;99.90
7496;DHT22;3789;47.064;15.482;2022-07-29T00:05:16;20.80;99.90
7496;DHT22;3789;47.064;15.482;2022-07-29T00:07:45;20.90;99.90
7496;DHT22;3789;47.064;15.482;2022-07-29T00:10:23;20.90;99.90
7496;DHT22;3789;47.064;15.482;2022-07-29T00:12:50;20.90;99.90
7496;DHT22;3789;47.064;15.482;2022-07-29T00:15:23;20.90;99.90
7496;DHT22;3789;47.064;15.482;2022-07-29T00:17:51;20.80;99.90
7496;DHT22;3789;47.064;15.482;2022-07-29T00:20:20;20.80;99.90
7496;DHT22;3789;47.064;15.482;2022-07-29T00:22:48;20.70;99.90
7496;DHT22;3789;47.064;15.482;2022-07-29T00:25:18;20.70;99.90
7496;DHT22;3789;47.064;15.482;2022-07-29T00:27:49;20.70;99.90
7496;DHT22;3789;47.064;15.482;2022-07-29T00:30:19;20.60;99.90
7496;DHT22;3789;47.064;15.482;2022-07-29T00:32:49;20.60;99.90
7496;DHT22;3789;47.064;15.482;2022-07-29T00:35:25;20.70;99.90
7496;DHT22;3789;47.064;15.482;2022-07-29T00:38:16;20.70;99.90
7496;DHT22;3789;47.064;15.482;2022-07-29T00:40:44;20.70;99.90
7496;DHT22;3789;47.064;15.482;2022-07-29T00:43:24;20.70;99.90
7496;DHT22;3789;47.064;15.482;2022-07-29T00:45:54;20.70;99.90
7496;DHT22;3789;47.064;15.482;2022-07-29T00:48:25;20.70;99.90
7496;DHT22;3789;47.064;15.482;2022-07-29T00:51:07;20.70;99.90
7496;DHT22;3789;47.064;15.482;2022-07-29T00:53:40;20.70;99.90
7496;DHT22;3789;47.064;15.482;2022-07-29T00:56:19;20.70;99.90
7496;DHT22;3789;47.064;15.482;2022-07-29T00:59:14;20.60;99.90
7496;DHT22;3789;47.064;15.482;2022-07-29T01:01:43;20.40;99.90
7496;DHT22;3789;47.064;15.482;2022-07-29T01:04:12;20.30;99.90
7496;DHT22;3789;47.064;15.482;2022-07-29T01:06:45;20.30;99.90
7496;DHT22;3789;47.064;15.482;2022-07-29T01:09:28;20.40;99.90
7496;DHT22;3789;47.064;15.482;2022-07-29T01:12:17;20.40;99.90
7496;DHT22;3789;47.064;15.482;2022-07-29T01:14:52;20.30;99.90
7496;DHT22;3789;47.064;15.482;2022-07-29T01:18:42;20.30;99.90
7496;DHT22;3789;47.064;15.482;2022-07-29T01:26:59;20.30;99.90
7496;DHT22;3789;47.064;15.482;2022-07-29T01:30:09;20.50;99.90
7496;DHT22;3789;47.064;15.482;2022-07-29T01:32:41;20.50;99.90
7496;DHT22;3789;47.064;15.482;2022-07-29T01:35:28;20.50;99.90
7496;DHT22;3789;47.064;15.482;2022-07-29T01:38:05;20.40;99.90
7496;DHT22;3789;47.064;15.482;2022-07-29T01:40:58;20.40;99.90
7496;DHT22;3789;47.064;15.482;2022-07-29T01:43:36;20.30;99.90
7496;DHT22;3789;47.064;15.482;2022-07-29T01:46:09;20.30;99.90
7496;DHT22;3789;47.064;15.482;2022-07-29T01:48:51;20.30;99.90
7496;DHT22;3789;47.064;15.482;2022-07-29T01:54:48;20.20;99.90
7496;DHT22;3789;47.064;15.482;2022-07-29T01:57:18;20.00;99.90
7496;DHT22;3789;47.064;15.482;2022-07-29T01:59:48;19.90;99.90
7496;DHT22;3789;47.064;15.482;2022-07-29T02:02:18;19.90;99.90
7496;DHT22;3789;47.064;15.482;2022-07-29T02:04:47;19.80;99.90
7496;DHT22;3789;47.064;15.482;2022-07-29T02:07:20;19.80;99.90
7496;DHT22;3789;47.064;15.482;2022-07-29T02:09:49;19.80;99.90
7496;DHT22;3789;47.064;15.482;2022-07-29T02:12:18;19.90;99.90
7496;DHT22;3789;47.064;15.482;2022-07-29T02:14:49;19.90;99.90
7496;DHT22;3789;47.064;15.482;2022-07-29T02:17:45;19.90;99.90
7496;DHT22;3789;47.064;15.482;2022-07-29T02:20:13;19.90;99.90
7496;DHT22;3789;47.064;15.482;2022-07-29T02:22:41;19.90;99.90
7496;DHT22;3789;47.064;15.482;2022-07-29T02:25:11;19.80;99.90
7496;DHT22;3789;47.064;15.482;2022-07-29T02:27:41;19.80;99.90
7496;DHT22;3789;47.064;15.482;2022-07-29T02:30:10;19.80;99.90
7496;DHT22;3789;47.064;15.482;2022-07-29T02:32:41;19.80;99.90
7496;DHT22;3789;47.064;15.482;2022-07-29T02:35:09;19.80;99.90
7496;DHT22;3789;47.064;15.482;2022-07-29T02:37:37;19.60;99.90
7496;DHT22;3789;47.064;15.482;2022-07-29T02:40:09;19.60;99.90
7496;DHT22;3789;47.064;15.482;2022-07-29T02:42:39;19.60;99.90
7496;DHT22;3789;47.064;15.482;2022-07-29T02:45:17;19.60;99.90
7496;DHT22;3789;47.064;15.482;2022-07-29T02:47:47;19.60;99.90
7496;DHT22;3789;47.064;15.482;2022-07-29T02:50:34;19.60;99.90
7496;DHT22;3789;47.064;15.482;2022-07-29T02:53:14;19.60;99.90
7496;DHT22;3789;47.064;15.482;2022-07-29T02:55:56;19.50;99.90
7496;DHT22;3789;47.064;15.482;2022-07-29T02:58:28;19.50;99.90
7496;DHT22;3789;47.064;15.482;2022-07-29T03:00:58;19.30;99.90
7496;DHT22;3789;47.064;15.482;2022-07-29T03:03:29;19.10;99.90
7496;DHT22;3789;47.064;15.482;2022-07-29T03:06:00;19.00;99.90
7496;DHT22;3789;47.064;15.482;2022-07-29T03:08:28;18.90;99.90
7496;DHT22;3789;47.064;15.482;2022-07-29T03:11:07;18.90;99.90
7496;DHT22;3789;47.064;15.482;2022-07-29T03:13:35;18.80;99.90
7496;DHT22;3789;47.064;15.482;2022-07-29T03:16:04;18.80;99.90
7496;DHT22;3789;47.064;15.482;2022-07-29T03:18:32;18.70;99.90
7496;DHT22;3789;47.064;15.482;2022-07-29T03:21:00;18.60;99.90
7496;DHT22;3789;47.064;15.482;2022-07-29T03:23:27;18.60;99.90
7496;DHT22;3789;47.064;15.482;2022-07-29T03:26:02;18.60;99.90
7496;DHT22;3789;47.064;15.482;2022-07-29T03:28:29;18.50;99.90
7496;DHT22;3789;47.064;15.482;2022-07-29T03:30:57;18.60;99.90
7496;DHT22;3789;47.064;15.482;2022-07-29T03:33:24;18.60;99.90
7496;DHT22;3789;47.064;15.482;2022-07-29T03:35:52;18.70;99.90
7496;DHT22;3789;47.064;15.482;2022-07-29T03:38:19;18.80;99.90
7496;DHT22;3789;47.064;15.482;2022-07-29T03:40:56;18.80;99.90
7496;DHT22;3789;47.064;15.482;2022-07-29T03:43:25;18.90;99.90
7496;DHT22;3789;47.064;15.482;2022-07-29T03:45:55;18.80;99.90
7496;DHT22;3789;47.064;15.482;2022-07-29T03:48:24;18.70;99.90
7496;DHT22;3789;47.064;15.482;2022-07-29T03:50:52;18.80;99.90
7496;DHT22;3789;47.064;15.482;2022-07-29T03:53:19;18.70;99.90
7496;DHT22;3789;47.064;15.482;2022-07-29T03:55:54;18.50;99.90
7496;DHT22;3789;47.064;15.482;2022-07-29T03:58:26;18.60;99.90
7496;DHT22;3789;47.064;15.482;2022-07-29T04:00:55;18.50;99.90
7496;DHT22;3789;47.064;15.482;2022-07-29T04:03:22;18.50;99.90
7496;DHT22;3789;47.064;15.482;2022-07-29T04:06:03;18.60;99.90
7496;DHT22;3789;47.064;15.482;2022-07-29T04:08:33;18.60;99.90
7496;DHT22;3789;47.064;15.482;2022-07-29T04:11:02;18.40;99.90
7496;DHT22;3789;47.064;15.482;2022-07-29T04:13:30;18.30;99.90
7496;DHT22;3789;47.064;15.482;2022-07-29T04:15:57;18.30;99.90
7496;DHT22;3789;47.064;15.482;2022-07-29T04:18:25;18.40;99.90
7496;DHT22;3789;47.064;15.482;2022-07-29T04:20:52;18.50;99.90
7496;DHT22;3789;47.064;15.482;2022-07-29T04:23:19;18.60;99.90
7496;DHT22;3789;47.064;15.482;2022-07-29T04:25:47;18.50;99.90
7496;DHT22;3789;47.064;15.482;2022-07-29T04:28:23;18.70;99.90
7496;DHT22;3789;47.064;15.482;2022-07-29T04:30:50;19.00;99.90
7496;DHT22;3789;47.064;15.482;2022-07-29T04:33:17;19.40;99.90
7496;DHT22;3789;47.064;15.482;2022-07-29T04:35:44;19.80;99.90
7496;DHT22;3789;47.064;15.482;2022-07-29T04:38:18;20.10;99.90
7496;DHT22;3789;47.064;15.482;2022-07-29T04:40:45;20.40;99.90
7496;DHT22;3789;47.064;15.482;2022-07-29T04:43:15;20.90;99.90
7496;DHT22;3789;47.064;15.482;2022-07-29T04:45:48;21.30;99.90
7496;DHT22;3789;47.064;15.482;2022-07-29T04:48:15;21.80;99.90
7496;DHT22;3789;47.064;15.482;2022-07-29T04:50:43;21.90;99.90
7496;DHT22;3789;47.064;15.482;2022-07-29T04:53:10;21.70;99.90
7496;DHT22;3789;47.064;15.482;2022-07-29T04:55:38;21.60;99.90
7496;DHT22;3789;47.064;15.482;2022-07-29T04:58:05;22.00;99.90
7496;DHT22;3789;47.064;15.482;2022-07-29T05:00:32;22.80;99.90
7496;DHT22;3789;47.064;15.482;2022-07-29T05:02:59;23.40;99.90
7496;DHT22;3789;47.064;15.482;2022-07-29T05:05:27;23.90;99.90
7496;DHT22;3789;47.064;15.482;2022-07-29T05:07:54;24.30;99.90
7496;DHT22;3789;47.064;15.482;2022-07-29T05:10:22;24.50;99.90
7496;DHT22;3789;47.064;15.482;2022-07-29T05:12:49;24.80;99.90
7496;DHT22;3789;47.064;15.482;2022-07-29T05:15:16;25.00;99.90
7496;DHT22;3789;47.064;15.482;2022-07-29T05:17:44;25.20;99.90
7496;DHT22;3789;47.064;15.482;2022-07-29T05:20:14;24.80;99.90
7496;DHT22;3789;47.064;15.482;2022-07-29T05:22:41;24.30;99.90
7496;DHT22;3789;47.064;15.482;2022-07-29T05:25:08;23.90;99.90
7496;DHT22;3789;47.064;15.482;2022-07-29T05:27:36;23.60;99.90
7496;DHT22;3789;47.064;15.482;2022-07-29T05:30:04;23.70;99.90
7496;DHT22;3789;47.064;15.482;2022-07-29T05:32:31;23.80;99.90
7496;DHT22;3789;47.064;15.482;2022-07-29T05:34:58;24.30;99.90
7496;DHT22;3789;47.064;15.482;2022-07-29T05:37:25;24.70;99.90
7496;DHT22;3789;47.064;15.482;2022-07-29T05:39:52;25.20;99.90
7496;DHT22;3789;47.064;15.482;2022-07-29T05:42:25;25.00;99.90
7496;DHT22;3789;47.064;15.482;2022-07-29T05:44:52;25.00;99.90
7496;DHT22;3789;47.064;15.482;2022-07-29T05:47:20;25.50;99.90
7496;DHT22;3789;47.064;15.482;2022-07-29T05:49:47;25.60;99.90
7496;DHT22;3789;47.064;15.482;2022-07-29T05:52:14;26.00;99.90
7496;DHT22;3789;47.064;15.482;2022-07-29T05:54:42;26.10;99.90
7496;DHT22;3789;47.064;15.482;2022-07-29T05:57:18;26.50;99.90
7496;DHT22;3789;47.064;15.482;2022-07-29T05:59:46;26.00;99.90
7496;DHT22;3789;47.064;15.482;2022-07-29T06:02:15;26.10;99.90
7496;DHT22;3789;47.064;15.482;2022-07-29T06:04:46;26.60;99.90
7496;DHT22;3789;47.064;15.482;2022-07-29T06:07:13;26.90;99.90
7496;DHT22;3789;47.064;15.482;2022-07-29T06:09:40;27.00;99.90
7496;DHT22;3789;47.064;15.482;2022-07-29T06:12:08;27.20;99.90
7496;DHT22;3789;47.064;15.482;2022-07-29T06:14:35;27.40;99.90
7496;DHT22;3789;47.064;15.482;2022-07-29T06:17:04;27.40;99.90
7496;DHT22;3789;47.064;15.482;2022-07-29T06:19:34;27.20;99.90
7496;DHT22;3789;47.064;15.482;2022-07-29T06:22:02;27.10;99.90
7496;DHT22;3789;47.064;15.482;2022-07-29T06:24:29;27.10;99.90
7496;DHT22;3789;47.064;15.482;2022-07-29T06:26:57;27.20;99.90
7496;DHT22;3789;47.064;15.482;2022-07-29T06:29:24;26.80;99.90
7496;DHT22;3789;47.064;15.482;2022-07-29T06:31:52;26.80;99.90
7496;DHT22;3789;47.064;15.482;2022-07-29T06:34:19;26.60;99.90
7496;DHT22;3789;47.064;15.482;2022-07-29T06:36:46;26.80;99.90
7496;DHT22;3789;47.064;15.482;2022-07-29T06:39:14;26.60;99.90
7496;DHT22;3789;47.064;15.482;2022-07-29T06:41:41;26.90;99.90
7496;DHT22;3789;47.064;15.482;2022-07-29T06:44:11;27.30;99.90
7496;DHT22;3789;47.064;15.482;2022-07-29T06:46:38;27.20;99.90
7496;DHT22;3789;47.064;15.482;2022-07-29T06:49:05;27.30;99.90
7496;DHT22;3789;47.064;15.482;2022-07-29T06:51:33;27.30;99.90
7496;DHT22;3789;47.064;15.482;2022-07-29T06:54:01;27.50;99.90
7496;DHT22;3789;47.064;15.482;2022-07-29T06:56:30;27.60;99.90
7496;DHT22;3789;47.064;15.482;2022-07-29T06:59:08;27.80;99.90
7496;DHT22;3789;47.064;15.482;2022-07-29T07:01:41;27.90;99.90
7496;DHT22;3789;47.064;15.482;2022-07-29T07:04:09;27.90;99.90
7496;DHT22;3789;47.064;15.482;2022-07-29T07:06:37;27.80;99.90
7496;DHT22;3789;47.064;15.482;2022-07-29T07:09:10;27.50;99.90
7496;DHT22;3789;47.064;15.482;2022-07-29T07:11:37;27.90;99.90
7496;DHT22;3789;47.064;15.482;2022-07-29T07:14:04;28.30;99.90
7496;DHT22;3789;47.064;15.482;2022-07-29T07:16:32;28.40;99.90
7496;DHT22;3789;47.064;15.482;2022-07-29T07:18:59;28.50;99.90
7496;DHT22;3789;47.064;15.482;2022-07-29T07:21:26;28.70;99.90
7496;DHT22;3789;47.064;15.482;2022-07-29T07:23:56;28.90;99.90
7496;DHT22;3789;47.064;15.482;2022-07-29T07:26:24;29.00;99.90
7496;DHT22;3789;47.064;15.482;2022-07-29T07:28:51;29.20;99.90
7496;DHT22;3789;47.064;15.482;2022-07-29T07:31:19;29.30;99.90
7496;DHT22;3789;47.064;15.482;2022-07-29T07:33:46;29.50;99.90
7496;DHT22;3789;47.064;15.482;2022-07-29T07:36:14;29.70;99.90
7496;DHT22;3789;47.064;15.482;2022-07-29T07:38:41;29.90;99.90
7496;DHT22;3789;47.064;15.482;2022-07-29T07:41:08;30.00;99.90
7496;DHT22;3789;47.064;15.482;2022-07-29T07:43:35;30.00;99.90
7496;DHT22;3789;47.064;15.482;2022-07-29T07:46:02;30.00;99.90
7496;DHT22;3789;47.064;15.482;2022-07-29T07:48:29;30.20;99.90
7496;DHT22;3789;47.064;15.482;2022-07-29T07:50:56;30.30;99.90
7496;DHT22;3789;47.064;15.482;2022-07-29T07:53:24;30.40;99.90
7496;DHT22;3789;47.064;15.482;2022-07-29T07:55:51;30.40;99.90
7496;DHT22;3789;47.064;15.482;2022-07-29T07:58:36;30.50;99.90
7496;DHT22;3789;47.064;15.482;2022-07-29T08:01:16;30.70;99.90
7496;DHT22;3789;47.064;15.482;2022-07-29T08:03:50;30.70;99.90
7496;DHT22;3789;47.064;15.482;2022-07-29T08:09:30;30.60;99.90
7496;DHT22;3789;47.064;15.482;2022-07-29T08:11:58;30.80;99.90
7496;DHT22;3789;47.064;15.482;2022-07-29T08:14:26;31.00;99.90
7496;DHT22;3789;47.064;15.482;2022-07-29T08:16:53;30.90;99.90
7496;DHT22;3789;47.064;15.482;2022-07-29T08:19:20;30.60;99.90
7496;DHT22;3789;47.064;15.482;2022-07-29T08:21:49;30.60;99.90
7496;DHT22;3789;47.064;15.482;2022-07-29T08:24:20;30.70;99.90
7496;DHT22;3789;47.064;15.482;2022-07-29T08:27:06;31.00;99.90
7496;DHT22;3789;47.064;15.482;2022-07-29T08:29:53;31.10;99.90
7496;DHT22;3789;47.064;15.482;2022-07-29T08:32:22;31.10;99.90
7496;DHT22;3789;47.064;15.482;2022-07-29T08:35:10;30.90;99.90
7496;DHT22;3789;47.064;15.482;2022-07-29T08:37:37;31.30;99.90
7496;DHT22;3789;47.064;15.482;2022-07-29T08:40:04;31.30;99.90
7496;DHT22;3789;47.064;15.482;2022-07-29T08:42:33;31.40;99.90
7496;DHT22;3789;47.064;15.482;2022-07-29T08:45:00;31.60;99.90
7496;DHT22;3789;47.064;15.482;2022-07-29T08:47:27;31.80;99.90
7496;DHT22;3789;47.064;15.482;2022-07-29T08:49:55;31.90;99.90
7496;DHT22;3789;47.064;15.482;2022-07-29T08:52:25;31.70;99.90
7496;DHT22;3789;47.064;15.482;2022-07-29T08:54:53;31.40;99.90
7496;DHT22;3789;47.064;15.482;2022-07-29T08:57:21;31.30;99.90
7496;DHT22;3789;47.064;15.482;2022-07-29T08:59:52;31.20;99.90
7496;DHT22;3789;47.064;15.482;2022-07-29T09:02:22;31.30;99.90
7496;DHT22;3789;47.064;15.482;2022-07-29T09:04:50;31.60;99.90
7496;DHT22;3789;47.064;15.482;2022-07-29T09:07:18;31.40;99.90
7496;DHT22;3789;47.064;15.482;2022-07-29T09:09:45;31.10;99.90
7496;DHT22;3789;47.064;15.482;2022-07-29T09:12:13;30.90;99.90
7496;DHT22;3789;47.064;15.482;2022-07-29T09:14:55;30.90;99.90
7496;DHT22;3789;47.064;15.482;2022-07-29T09:17:44;30.80;99.90
7496;DHT22;3789;47.064;15.482;2022-07-29T09:20:18;30.60;99.90
7496;DHT22;3789;47.064;15.482;2022-07-29T09:22:45;30.40;99.90
7496;DHT22;3789;47.064;15.482;2022-07-29T09:25:38;30.30;99.90
7496;DHT22;3789;47.064;15.482;2022-07-29T09:28:11;30.20;99.90
7496;DHT22;3789;47.064;15.482;2022-07-29T09:30:58;30.00;99.90
7496;DHT22;3789;47.064;15.482;2022-07-29T09:33:33;29.80;99.90
7496;DHT22;3789;47.064;15.482;2022-07-29T09:36:09;29.70;99.90
7496;DHT22;3789;47.064;15.482;2022-07-29T09:38:38;29.80;99.90
7496;DHT22;3789;47.064;15.482;2022-07-29T09:41:05;29.80;99.90
7496;DHT22;3789;47.064;15.482;2022-07-29T09:43:34;29.80;99.90
7496;DHT22;3789;47.064;15.482;2022-07-29T09:46:14;29.70;99.90
7496;DHT22;3789;47.064;15.482;2022-07-29T09:48:41;29.70;99.90
7496;DHT22;3789;47.064;15.482;2022-07-29T09:51:19;29.80;99.90
7496;DHT22;3789;47.064;15.482;2022-07-29T09:53:55;29.90;99.90
7496;DHT22;3789;47.064;15.482;2022-07-29T09:56:42;29.90;99.90
7496;DHT22;3789;47.064;15.482;2022-07-29T09:59:10;30.00;99.90
7496;DHT22;3789;47.064;15.482;2022-07-29T10:01:38;30.10;99.90
7496;DHT22;3789;47.064;15.482;2022-07-29T10:04:06;30.20;99.90
7496;DHT22;3789;47.064;15.482;2022-07-29T10:06:33;30.20;99.90
7496;DHT22;3789;47.064;15.482;2022-07-29T10:09:10;30.30;99.90
7496;DHT22;3789;47.064;15.482;2022-07-29T10:11:38;30.30;99.90
7496;DHT22;3789;47.064;15.482;2022-07-29T10:14:15;30.30;99.90
7496;DHT22;3789;47.064;15.482;2022-07-29T10:16:43;30.30;99.90
7496;DHT22;3789;47.064;15.482;2022-07-29T10:19:10;30.40;99.90
7496;DHT22;3789;47.064;15.482;2022-07-29T10:21:38;30.40;99.90
7496;DHT22;3789;47.064;15.482;2022-07-29T10:24:09;30.30;99.90
7496;DHT22;3789;47.064;15.482;2022-07-29T10:26:41;30.20;99.90
7496;DHT22;3789;47.064;15.482;2022-07-29T10:29:08;30.00;99.90
7496;DHT22;3789;47.064;15.482;2022-07-29T10:37:25;29.50;99.90
7496;DHT22;3789;47.064;15.482;2022-07-29T10:40:31;29.40;99.90
7496;DHT22;3789;47.064;15.482;2022-07-29T10:43:26;29.10;99.90
7496;DHT22;3789;47.064;15.482;2022-07-29T10:45:59;28.90;99.90
7496;DHT22;3789;47.064;15.482;2022-07-29T10:48:27;28.90;99.90
7496;DHT22;3789;47.064;15.482;2022-07-29T10:53:23;28.70;99.90
7496;DHT22;3789;47.064;15.482;2022-07-29T10:55:52;28.60;99.90
7496;DHT22;3789;47.064;15.482;2022-07-29T10:58:21;28.70;99.90
7496;DHT22;3789;47.064;15.482;2022-07-29T11:00:52;28.80;99.90
7496;DHT22;3789;47.064;15.482;2022-07-29T11:06:16;29.00;99.90
7496;DHT22;3789;47.064;15.482;2022-07-29T11:09:18;29.10;99.90
7496;DHT22;3789;47.064;15.482;2022-07-29T11:12:01;29.40;99.90
7496;DHT22;3789;47.064;15.482;2022-07-29T11:17:18;29.80;99.90
7496;DHT22;3789;47.064;15.482;2022-07-29T11:19:47;29.90;99.90
7496;DHT22;3789;47.064;15.482;2022-07-29T11:22:34;30.00;99.90
7496;DHT22;3789;47.064;15.482;2022-07-29T11:25:16;30.20;99.90
7496;DHT22;3789;47.064;15.482;2022-07-29T11:27:47;30.40;99.90
7496;DHT22;3789;47.064;15.482;2022-07-29T11:30:14;30.50;99.90
7496;DHT22;3789;47.064;15.482;2022-07-29T11:32:42;30.60;99.90
7496;DHT22;3789;47.064;15.482;2022-07-29T11:35:20;30.70;99.90
7496;DHT22;3789;47.064;15.482;2022-07-29T11:38:25;30.80;99.90
7496;DHT22;3789;47.064;15.482;2022-07-29T11:41:26;30.90;99.90
7496;DHT22;3789;47.064;15.482;2022-07-29T11:43:59;30.90;99.90
7496;DHT22;3789;47.064;15.482;2022-07-29T11:46:50;30.60;99.90
7496;DHT22;3789;47.064;15.482;2022-07-29T11:49:24;30.60;99.90
7496;DHT22;3789;47.064;15.482;2022-07-29T11:51:59;30.60;99.90
7496;DHT22;3789;47.064;15.482;2022-07-29T11:54:33;30.60;99.90
7496;DHT22;3789;47.064;15.482;2022-07-29T11:57:20;30.60;99.90
7496;DHT22;3789;47.064;15.482;2022-07-29T11:59:48;30.60;99.90
7496;DHT22;3789;47.064;15.482;2022-07-29T12:02:16;30.30;99.90
7496;DHT22;3789;47.064;15.482;2022-07-29T12:05:03;30.40;99.90
7496;DHT22;3789;47.064;15.482;2022-07-29T12:07:37;30.40;99.90
7496;DHT22;3789;47.064;15.482;2022-07-29T12:10:13;30.30;99.90
7496;DHT22;3789;47.064;15.482;2022-07-29T12:12:51;30.40;99.90
7496;DHT22;3789;47.064;15.482;2022-07-29T12:15:19;30.10;99.90
7496;DHT22;3789;47.064;15.482;2022-07-29T12:17:48;29.80;99.90
7496;DHT22;3789;47.064;15.482;2022-07-29T12:20:29;29.90;99.90
7496;DHT22;3789;47.064;15.482;2022-07-29T12:22:56;29.90;99.90
7496;DHT22;3789;47.064;15.482;2022-07-29T12:25:24;30.00;99.90
7496;DHT22;3789;47.064;15.482;2022-07-29T12:28:02;30.00;99.90
7496;DHT22;3789;47.064;15.482;2022-07-29T12:30:44;30.00;99.90
7496;DHT22;3789;47.064;15.482;2022-07-29T12:35:47;29.90;99.90
7496;DHT22;3789;47.064;15.482;2022-07-29T12:38:33;29.90;99.90
7496;DHT22;3789;47.064;15.482;2022-07-29T12:41:02;29.70;99.90
7496;DHT22;3789;47.064;15.482;2022-07-29T12:43:30;29.60;99.90
7496;DHT22;3789;47.064;15.482;2022-07-29T12:46:10;29.60;99.90
7496;DHT22;3789;47.064;15.482;2022-07-29T12:48:40;29.40;99.90
7496;DHT22;3789;47.064;15.482;2022-07-29T12:51:10;29.40;99.90
7496;DHT22;3789;47.064;15.482;2022-07-29T12:53:38;29.50;99.90
7496;DHT22;3789;47.064;15.482;2022-07-29T12:56:06;29.40;99.90
7496;DHT22;3789;47.064;15.482;2022-07-29T12:59:22;29.20;99.90
7496;DHT22;3789;47.064;15.482;2022-07-29T13:01:51;29.40;99.90
7496;DHT22;3789;47.064;15.482;2022-07-29T13:04:29;29.70;99.90
7496;DHT22;3789;47.064;15.482;2022-07-29T13:09:44;30.00;99.90
7496;DHT22;3789;47.064;15.482;2022-07-29T13:12:15;29.80;99.90
7496;DHT22;3789;47.064;15.482;2022-07-29T13:14:47;29.60;99.90
7496;DHT22;3789;47.064;15.482;2022-07-29T13:17:16;29.10;99.90
7496;DHT22;3789;47.064;15.482;2022-07-29T13:20:12;28.60;99.90
7496;DHT22;3789;47.064;15.482;2022-07-29T13:22:42;28.60;99.90
7496;DHT22;3789;47.064;15.482;2022-07-29T13:25:14;28.70;99.90
7496;DHT22;3789;47.064;15.482;2022-07-29T13:27:41;28.90;99.90
7496;DHT22;3789;47.064;15.482;2022-07-29T13:30:09;29.00;99.90
7496;DHT22;3789;47.064;15.482;2022-07-29T13:32:37;28.90;99.90
7496;DHT22;3789;47.064;15.482;2022-07-29T13:35:06;28.90;99.90
7496;DHT22;3789;47.064;15.482;2022-07-29T13:37:35;28.80;99.90
7496;DHT22;3789;47.064;15.482;2022-07-29T13:40:08;28.80;99.90
7496;DHT22;3789;47.064;15.482;2022-07-29T13:42:37;28.90;99.90
7496;DHT22;3789;47.064;15.482;2022-07-29T13:45:05;29.10;99.90
7496;DHT22;3789;47.064;15.482;2022-07-29T13:47:33;29.20;99.90
7496;DHT22;3789;47.064;15.482;2022-07-29T13:50:02;29.60;99.90
7496;DHT22;3789;47.064;15.482;2022-07-29T13:52:31;29.40;99.90
7496;DHT22;3789;47.064;15.482;2022-07-29T13:54:59;29.40;99.90
7496;DHT22;3789;47.064;15.482;2022-07-29T13:57:27;28.80;99.90
7496;DHT22;3789;47.064;15.482;2022-07-29T13:59:55;28.60;99.90
7496;DHT22;3789;47.064;15.482;2022-07-29T14:02:22;28.50;99.90
7496;DHT22;3789;47.064;15.482;2022-07-29T14:04:52;28.30;99.90
7496;DHT22;3789;47.064;15.482;2022-07-29T14:07:21;28.30;99.90
7496;DHT22;3789;47.064;15.482;2022-07-29T14:09:48;28.60;99.90
7496;DHT22;3789;47.064;15.482;2022-07-29T14:12:15;28.80;99.90
7496;DHT22;3789;47.064;15.482;2022-07-29T14:14:42;28.90;99.90
7496;DHT22;3789;47.064;15.482;2022-07-29T14:17:13;29.10;99.90
7496;DHT22;3789;47.064;15.482;2022-07-29T14:19:40;29.10;99.90
7496;DHT22;3789;47.064;15.482;2022-07-29T14:22:08;29.30;99.90
7496;DHT22;3789;47.064;15.482;2022-07-29T14:24:36;29.40;99.90
7496;DHT22;3789;47.064;15.482;2022-07-29T14:27:05;29.60;99.90
7496;DHT22;3789;47.064;15.482;2022-07-29T14:29:33;29.60;99.90
7496;DHT22;3789;47.064;15.482;2022-07-29T14:32:09;29.60;99.90
7496;DHT22;3789;47.064;15.482;2022-07-29T14:34:41;29.60;99.90
7496;DHT22;3789;47.064;15.482;2022-07-29T14:37:09;29.60;99.90
7496;DHT22;3789;47.064;15.482;2022-07-29T14:39:41;29.50;99.90
7496;DHT22;3789;47.064;15.482;2022-07-29T14:42:10;29.60;99.90
7496;DHT22;3789;47.064;15.482;2022-07-29T14:44:39;29.40;99.90
7496;DHT22;3789;47.064;15.482;2022-07-29T14:47:07;29.40;99.90
7496;DHT22;3789;47.064;15.482;2022-07-29T14:49:35;29.20;99.90
7496;DHT22;3789;47.064;15.482;2022-07-29T14:52:02;29.00;99.90
7496;DHT22;3789;47.064;15.482;2022-07-29T14:54:29;29.30;99.90
7496;DHT22;3789;47.064;15.482;2022-07-29T14:56:56;29.50;99.90
7496;DHT22;3789;47.064;15.482;2022-07-29T14:59:25;29.60;99.90
7496;DHT22;3789;47.064;15.482;2022-07-29T15:01:53;29.20;99.90
7496;DHT22;3789;47.064;15.482;2022-07-29T15:04:20;28.70;99.90
7496;DHT22;3789;47.064;15.482;2022-07-29T15:06:48;28.10;99.90
7496;DHT22;3789;47.064;15.482;2022-07-29T15:09:15;27.90;99.90
7496;DHT22;3789;47.064;15.482;2022-07-29T15:11:42;27.70;99.90
7496;DHT22;3789;47.064;15.482;2022-07-29T15:14:10;27.80;99.90
7496;DHT22;3789;47.064;15.482;2022-07-29T15:16:38;27.90;99.90
7496;DHT22;3789;47.064;15.482;2022-07-29T15:19:10;27.90;99.90
7496;DHT22;3789;47.064;15.482;2022-07-29T15:21:37;27.70;99.90
7496;DHT22;3789;47.064;15.482;2022-07-29T15:24:15;27.80;99.90
7496;DHT22;3789;47.064;15.482;2022-07-29T15:26:43;27.70;99.90
7496;DHT22;3789;47.064;15.482;2022-07-29T15:29:10;27.80;99.90
7496;DHT22;3789;47.064;15.482;2022-07-29T15:31:38;27.80;99.90
7496;DHT22;3789;47.064;15.482;2022-07-29T15:34:06;27.60;99.90
7496;DHT22;3789;47.064;15.482;2022-07-29T15:36:33;27.30;99.90
7496;DHT22;3789;47.064;15.482;2022-07-29T15:39:18;27.10;99.90
7496;DHT22;3789;47.064;15.482;2022-07-29T15:41:45;27.10;99.90
7496;DHT22;3789;47.064;15.482;2022-07-29T15:44:13;27.00;99.90
7496;DHT22;3789;47.064;15.482;2022-07-29T15:46:40;27.10;99.90
7496;DHT22;3789;47.064;15.482;2022-07-29T15:49:26;27.20;99.90
7496;DHT22;3789;47.064;15.482;2022-07-29T15:52:19;27.30;99.90
7496;DHT22;3789;47.064;15.482;2022-07-29T15:54:55;27.30;99.90
7496;DHT22;3789;47.064;15.482;2022-07-29T15:57:23;27.20;99.90
7496;DHT22;3789;47.064;15.482;2022-07-29T15:59:51;27.30;99.90
7496;DHT22;3789;47.064;15.482;2022-07-29T16:02:19;27.10;99.90
7496;DHT22;3789;47.064;15.482;2022-07-29T16:04:46;27.00;99.90
7496;DHT22;3789;47.064;15.482;2022-07-29T16:07:14;27.00;99.90
7496;DHT22;3789;47.064;15.482;2022-07-29T16:09:42;27.00;99.90
7496;DHT22;3789;47.064;15.482;2022-07-29T16:12:09;27.00;99.90
7496;DHT22;3789;47.064;15.482;2022-07-29T16:14:42;27.10;99.90
7496;DHT22;3789;47.064;15.482;2022-07-29T16:17:09;27.10;99.90
7496;DHT22;3789;47.064;15.482;2022-07-29T16:19:53;27.00;99.90
7496;DHT22;3789;47.064;15.482;2022-07-29T16:22:20;26.80;99.90
7496;DHT22;3789;47.064;15.482;2022-07-29T16:24:47;26.80;99.90
7496;DHT22;3789;47.064;15.482;2022-07-29T16:27:14;26.90;99.90
7496;DHT22;3789;47.064;15.482;2022-07-29T16:29:41;26.90;99.90
7496;DHT22;3789;47.064;15.482;2022-07-29T16:32:08;26.90;99.90
7496;DHT22;3789;47.064;15.482;2022-07-29T16:34:36;26.90;99.90
7496;DHT22;3789;47.064;15.482;2022-07-29T16:37:03;26.80;99.90
7496;DHT22;3789;47.064;15.482;2022-07-29T16:39:31;26.70;99.90
7496;DHT22;3789;47.064;15.482;2022-07-29T16:41:59;26.60;99.90
7496;DHT22;3789;47.064;15.482;2022-07-29T16:44:30;26.70;99.90